Dr. Babasaheb Ambedkar International Airport
VANP : now visible

Airfield :











YOU CAN JOIN US ON...

 
LOGIN :

Register | Disclaimer

   EN    FR    IT 

 









Legend :    VFR   Marginal VFR   IFR   Intensive IFR   Very Intensive IFR
Visi :
Ceiling :
>= 8 km
>= 3000ft
5 to 8 km
1000 to 3000 ft
1500m to 5 km
500 to 1000 ft
800 to 1500m
200 to 500 ft
< 800m
< 200 ft
Symbols :   Thunderstorms  Fog  Heavy snow  Heavy precipitations  Wind > 20 kt






- Airport Elevation : 1033 ft
- IATA code : NAG


VANP - Dr. Babasaheb Ambedkar International

CURRENT METAR :
  • 121900Z 14003KT 3000 HZ SCT100 20/16 Q1013 NOSIG

EXPIRED METARs :
  • 121830Z 15004KT 3000 HZ SCT100 20/16 Q1013 NOSIG
  • 121800Z 14004KT 3000 HZ SCT100 20/16 Q1013 NOSIG
  • 121730Z 14004KT 3000 HZ SCT100 20/16 Q1013 NOSIG
  • 121700Z 14004KT 3000 HZ SCT100 20/16 Q1013 NOSIG
  • 121630Z 14004KT 3000 HZ NSC 21/16 Q1014 NOSIG

TAF TAF VANP
Valid from the 12 at 18:00 until the 14 at 00:00 UTC


121700Z 1218/1324 14004KT 2500 HZ FEW100
BECMG 1300/1302 11002KT 1200 BR SCT100
BECMG 1304/1306 19003KT 2500 HZ SCT100
BECMG 1306/1308 33005KT 3000 TSRA HZ SCT020 FEW030CB BKN090
BECMG 1312/1314 25008KT 2500 TSRA HZ SCT020 FEW030CB BKN090
BECMG 1318/1320 17010KT 2000 RA HZ SCT020 FEW030CB BKN090



MET'MAP, your aeronautical weather chart ! - Copyright ORBIFLY December 2007 - Disclaimer

ORBIFLY MET'MAP TEAM :

Programming & Development : Alexandra Zaïnal
Concept & original design : Baudouin d'Aumeries
Assistance for programming : Marc-Olivier Méhu
Technical & hardware support : Manuel Goepfert

Contact : metmap@orbifly.com




SOURCES & CREDITS :

   NOAA       Earth
Advisory